sensor_id;sensor_type;location;lat;lon;timestamp;temperature;humidity
64111;DHT22;50401;48.188;11.566;2023-03-24T00:02:11;13.66;65.22
64111;DHT22;50401;48.188;11.566;2023-03-24T00:04:38;13.65;65.09
64111;DHT22;50401;48.188;11.566;2023-03-24T00:07:07;13.66;65.02
64111;DHT22;50401;48.188;11.566;2023-03-24T00:09:33;13.62;64.85
64111;DHT22;50401;48.188;11.566;2023-03-24T00:11:59;13.58;64.72
64111;DHT22;50401;48.188;11.566;2023-03-24T00:14:24;13.56;64.80
64111;DHT22;50401;48.188;11.566;2023-03-24T00:16:50;13.55;64.78
64111;DHT22;50401;48.188;11.566;2023-03-24T00:19:17;13.53;64.90
64111;DHT22;50401;48.188;11.566;2023-03-24T00:21:44;13.48;65.16
64111;DHT22;50401;48.188;11.566;2023-03-24T00:24:11;13.45;65.20
64111;DHT22;50401;48.188;11.566;2023-03-24T00:26:38;13.39;65.32
64111;DHT22;50401;48.188;11.566;2023-03-24T00:29:09;13.38;65.41
64111;DHT22;50401;48.188;11.566;2023-03-24T00:31:38;13.35;65.52
64111;DHT22;50401;48.188;11.566;2023-03-24T00:34:06;13.34;65.64
64111;DHT22;50401;48.188;11.566;2023-03-24T00:36:33;13.34;65.44
64111;DHT22;50401;48.188;11.566;2023-03-24T00:38:59;13.34;65.53
64111;DHT22;50401;48.188;11.566;2023-03-24T00:41:25;13.34;65.47
64111;DHT22;50401;48.188;11.566;2023-03-24T00:43:54;13.34;65.48
64111;DHT22;50401;48.188;11.566;2023-03-24T00:46:20;13.31;65.59
64111;DHT22;50401;48.188;11.566;2023-03-24T00:51:37;13.31;65.43
64111;DHT22;50401;48.188;11.566;2023-03-24T00:54:03;13.29;65.27
64111;DHT22;50401;48.188;11.566;2023-03-24T00:56:30;13.32;65.37
64111;DHT22;50401;48.188;11.566;2023-03-24T00:58:56;13.31;65.35
64111;DHT22;50401;48.188;11.566;2023-03-24T01:01:26;13.35;65.11
64111;DHT22;50401;48.188;11.566;2023-03-24T01:03:54;13.36;65.15
64111;DHT22;50401;48.188;11.566;2023-03-24T01:06:21;13.41;64.83
64111;DHT22;50401;48.188;11.566;2023-03-24T01:08:48;13.45;64.81
64111;DHT22;50401;48.188;11.566;2023-03-24T01:11:15;13.53;64.74
64111;DHT22;50401;48.188;11.566;2023-03-24T01:13:41;13.63;64.59
64111;DHT22;50401;48.188;11.566;2023-03-24T01:16:07;13.66;64.50
64111;DHT22;50401;48.188;11.566;2023-03-24T01:18:34;13.55;64.68
64111;DHT22;50401;48.188;11.566;2023-03-24T01:21:06;13.48;65.00
64111;DHT22;50401;48.188;11.566;2023-03-24T01:23:31;13.35;65.28
64111;DHT22;50401;48.188;11.566;2023-03-24T01:25:59;13.34;65.42
64111;DHT22;50401;48.188;11.566;2023-03-24T01:28:24;13.32;65.31
64111;DHT22;50401;48.188;11.566;2023-03-24T01:30:52;13.28;65.48
64111;DHT22;50401;48.188;11.566;2023-03-24T01:33:18;13.24;65.47
64111;DHT22;50401;48.188;11.566;2023-03-24T01:35:44;13.21;65.63
64111;DHT22;50401;48.188;11.566;2023-03-24T01:38:11;13.15;65.73
64111;DHT22;50401;48.188;11.566;2023-03-24T01:40:39;13.15;65.85
64111;DHT22;50401;48.188;11.566;2023-03-24T01:43:06;13.14;65.94
64111;DHT22;50401;48.188;11.566;2023-03-24T01:48:53;13.06;66.07
64111;DHT22;50401;48.188;11.566;2023-03-24T01:51:35;13.06;66.07
64111;DHT22;50401;48.188;11.566;2023-03-24T01:54:07;13.07;65.98
64111;DHT22;50401;48.188;11.566;2023-03-24T01:56:38;13.06;65.94
64111;DHT22;50401;48.188;11.566;2023-03-24T01:59:17;13.07;65.73
64111;DHT22;50401;48.188;11.566;2023-03-24T02:01:44;13.08;65.67
64111;DHT22;50401;48.188;11.566;2023-03-24T02:04:10;13.08;65.65
64111;DHT22;50401;48.188;11.566;2023-03-24T02:06:38;13.10;65.77
64111;DHT22;50401;48.188;11.566;2023-03-24T02:09:06;13.18;65.75
64111;DHT22;50401;48.188;11.566;2023-03-24T02:11:34;13.15;66.07
64111;DHT22;50401;48.188;11.566;2023-03-24T02:14:02;13.14;66.00
64111;DHT22;50401;48.188;11.566;2023-03-24T02:47:49;13.19;66.36
64111;DHT22;50401;48.188;11.566;2023-03-24T02:50:50;13.19;67.46
64111;DHT22;50401;48.188;11.566;2023-03-24T02:56:33;13.19;66.95
64111;DHT22;50401;48.188;11.566;2023-03-24T02:59:06;13.12;67.97
64111;DHT22;50401;48.188;11.566;2023-03-24T03:04:45;13.32;67.66
64111;DHT22;50401;48.188;11.566;2023-03-24T03:07:11;13.28;66.22
64111;DHT22;50401;48.188;11.566;2023-03-24T03:09:49;13.28;66.13
64111;DHT22;50401;48.188;11.566;2023-03-24T03:12:17;13.26;66.08
64111;DHT22;50401;48.188;11.566;2023-03-24T03:14:54;13.26;66.35
64111;DHT22;50401;48.188;11.566;2023-03-24T03:17:24;13.26;66.67
64111;DHT22;50401;48.188;11.566;2023-03-24T03:20:17;13.26;66.98
64111;DHT22;50401;48.188;11.566;2023-03-24T03:22:55;13.38;67.32
64111;DHT22;50401;48.188;11.566;2023-03-24T03:25:26;13.46;67.55
64111;DHT22;50401;48.188;11.566;2023-03-24T03:27:55;13.34;67.36
64111;DHT22;50401;48.188;11.566;2023-03-24T03:30:28;13.12;68.04
64111;DHT22;50401;48.188;11.566;2023-03-24T03:33:11;13.11;68.15
64111;DHT22;50401;48.188;11.566;2023-03-24T03:35:42;13.12;68.83
64111;DHT22;50401;48.188;11.566;2023-03-24T03:38:18;13.08;68.55
64111;DHT22;50401;48.188;11.566;2023-03-24T03:40:50;12.97;68.72
64111;DHT22;50401;48.188;11.566;2023-03-24T03:43:17;12.97;70.12
64111;DHT22;50401;48.188;11.566;2023-03-24T03:45:43;12.94;68.68
64111;DHT22;50401;48.188;11.566;2023-03-24T03:48:09;12.93;69.34
64111;DHT22;50401;48.188;11.566;2023-03-24T03:50:35;13.17;68.29
64111;DHT22;50401;48.188;11.566;2023-03-24T03:53:02;12.96;68.59
64111;DHT22;50401;48.188;11.566;2023-03-24T03:55:28;12.94;68.61
64111;DHT22;50401;48.188;11.566;2023-03-24T03:57:55;12.93;68.53
64111;DHT22;50401;48.188;11.566;2023-03-24T04:00:21;12.90;68.22
64111;DHT22;50401;48.188;11.566;2023-03-24T04:05:39;12.89;68.08
64111;DHT22;50401;48.188;11.566;2023-03-24T04:16:24;12.90;68.75
64111;DHT22;50401;48.188;11.566;2023-03-24T04:19:43;12.96;68.21
64111;DHT22;50401;48.188;11.566;2023-03-24T04:33:20;12.91;68.38
64111;DHT22;50401;48.188;11.566;2023-03-24T04:35:55;12.91;69.00
64111;DHT22;50401;48.188;11.566;2023-03-24T04:38:25;12.93;68.84
64111;DHT22;50401;48.188;11.566;2023-03-24T04:40:54;12.90;69.16
64111;DHT22;50401;48.188;11.566;2023-03-24T04:43:24;12.91;69.00
64111;DHT22;50401;48.188;11.566;2023-03-24T04:45:52;12.93;69.23
64111;DHT22;50401;48.188;11.566;2023-03-24T04:48:22;12.91;69.18
64111;DHT22;50401;48.188;11.566;2023-03-24T04:50:59;12.87;69.30
64111;DHT22;50401;48.188;11.566;2023-03-24T04:53:26;12.86;69.14
64111;DHT22;50401;48.188;11.566;2023-03-24T04:58:36;12.86;69.14
64111;DHT22;50401;48.188;11.566;2023-03-24T05:01:01;12.84;69.36
64111;DHT22;50401;48.188;11.566;2023-03-24T05:03:27;12.86;69.49
64111;DHT22;50401;48.188;11.566;2023-03-24T05:05:53;12.93;69.62
64111;DHT22;50401;48.188;11.566;2023-03-24T05:08:19;12.90;69.08
64111;DHT22;50401;48.188;11.566;2023-03-24T05:10:45;12.90;69.10
64111;DHT22;50401;48.188;11.566;2023-03-24T05:13:11;13.08;68.77
64111;DHT22;50401;48.188;11.566;2023-03-24T05:15:37;13.10;68.94
64111;DHT22;50401;48.188;11.566;2023-03-24T05:18:04;13.11;68.58
64111;DHT22;50401;48.188;11.566;2023-03-24T05:20:30;13.12;68.58
64111;DHT22;50401;48.188;11.566;2023-03-24T05:22:56;13.19;69.11
64111;DHT22;50401;48.188;11.566;2023-03-24T05:25:21;13.29;69.07
64111;DHT22;50401;48.188;11.566;2023-03-24T05:27:47;13.43;69.34
64111;DHT22;50401;48.188;11.566;2023-03-24T05:30:14;13.56;69.56
64111;DHT22;50401;48.188;11.566;2023-03-24T05:32:40;13.76;69.01
64111;DHT22;50401;48.188;11.566;2023-03-24T05:35:06;13.84;68.74
64111;DHT22;50401;48.188;11.566;2023-03-24T05:37:31;13.85;68.99
64111;DHT22;50401;48.188;11.566;2023-03-24T05:39:57;13.87;68.89
64111;DHT22;50401;48.188;11.566;2023-03-24T05:42:23;13.91;69.06
64111;DHT22;50401;48.188;11.566;2023-03-24T05:44:49;13.84;69.12
64111;DHT22;50401;48.188;11.566;2023-03-24T05:47:15;13.80;69.53
64111;DHT22;50401;48.188;11.566;2023-03-24T05:49:44;13.80;69.73
64111;DHT22;50401;48.188;11.566;2023-03-24T05:52:11;13.84;70.35
64111;DHT22;50401;48.188;11.566;2023-03-24T05:54:37;13.84;70.79
64111;DHT22;50401;48.188;11.566;2023-03-24T05:57:04;13.81;71.12
64111;DHT22;50401;48.188;11.566;2023-03-24T05:59:32;13.85;71.19
64111;DHT22;50401;48.188;11.566;2023-03-24T06:01:57;13.88;71.24
64111;DHT22;50401;48.188;11.566;2023-03-24T06:04:23;13.94;70.90
64111;DHT22;50401;48.188;11.566;2023-03-24T06:06:49;13.97;71.15
64111;DHT22;50401;48.188;11.566;2023-03-24T06:09:15;13.97;70.70
64111;DHT22;50401;48.188;11.566;2023-03-24T06:11:43;14.05;70.89
64111;DHT22;50401;48.188;11.566;2023-03-24T06:14:09;14.02;71.13
64111;DHT22;50401;48.188;11.566;2023-03-24T06:16:35;13.84;70.73
64111;DHT22;50401;48.188;11.566;2023-03-24T06:19:04;13.55;71.41
64111;DHT22;50401;48.188;11.566;2023-03-24T06:21:31;13.36;70.88
64111;DHT22;50401;48.188;11.566;2023-03-24T06:23:56;13.48;70.74
64111;DHT22;50401;48.188;11.566;2023-03-24T06:26:22;13.62;71.18
64111;DHT22;50401;48.188;11.566;2023-03-24T06:28:48;13.80;71.48
64111;DHT22;50401;48.188;11.566;2023-03-24T06:31:16;13.87;71.47
64111;DHT22;50401;48.188;11.566;2023-03-24T06:33:44;13.87;71.30
64111;DHT22;50401;48.188;11.566;2023-03-24T06:36:11;13.67;71.15
64111;DHT22;50401;48.188;11.566;2023-03-24T06:38:37;13.69;71.35
64111;DHT22;50401;48.188;11.566;2023-03-24T06:41:03;13.55;71.32
64111;DHT22;50401;48.188;11.566;2023-03-24T06:43:29;13.55;71.64
64111;DHT22;50401;48.188;11.566;2023-03-24T06:45:54;13.60;71.29
64111;DHT22;50401;48.188;11.566;2023-03-24T06:48:20;13.59;70.99
64111;DHT22;50401;48.188;11.566;2023-03-24T06:50:46;13.60;71.16
64111;DHT22;50401;48.188;11.566;2023-03-24T06:53:11;13.46;71.07
64111;DHT22;50401;48.188;11.566;2023-03-24T06:55:37;13.56;71.49
64111;DHT22;50401;48.188;11.566;2023-03-24T06:58:02;13.55;71.07
64111;DHT22;50401;48.188;11.566;2023-03-24T07:00:28;13.56;71.12
64111;DHT22;50401;48.188;11.566;2023-03-24T07:02:54;13.48;71.45
64111;DHT22;50401;48.188;11.566;2023-03-24T07:05:20;13.48;71.29
64111;DHT22;50401;48.188;11.566;2023-03-24T07:07:46;13.38;71.44
64111;DHT22;50401;48.188;11.566;2023-03-24T07:10:12;13.43;72.00
64111;DHT22;50401;48.188;11.566;2023-03-24T07:12:38;13.60;72.05
64111;DHT22;50401;48.188;11.566;2023-03-24T07:15:05;13.46;71.91
64111;DHT22;50401;48.188;11.566;2023-03-24T07:17:31;13.29;72.56
64111;DHT22;50401;48.188;11.566;2023-03-24T07:19:57;13.19;72.72
64111;DHT22;50401;48.188;11.566;2023-03-24T07:22:24;13.25;73.44
64111;DHT22;50401;48.188;11.566;2023-03-24T07:24:49;13.28;73.66
64111;DHT22;50401;48.188;11.566;2023-03-24T07:27:15;13.26;73.73
64111;DHT22;50401;48.188;11.566;2023-03-24T07:29:41;13.38;74.19
64111;DHT22;50401;48.188;11.566;2023-03-24T07:32:06;13.50;74.19
64111;DHT22;50401;48.188;11.566;2023-03-24T07:34:32;13.63;74.41
64111;DHT22;50401;48.188;11.566;2023-03-24T07:36:58;13.67;73.81
64111;DHT22;50401;48.188;11.566;2023-03-24T07:39:24;13.80;73.73
64111;DHT22;50401;48.188;11.566;2023-03-24T07:41:50;13.60;71.73
64111;DHT22;50401;48.188;11.566;2023-03-24T07:44:15;13.80;72.21
64111;DHT22;50401;48.188;11.566;2023-03-24T07:46:41;14.02;72.08
64111;DHT22;50401;48.188;11.566;2023-03-24T07:49:06;14.08;71.54
64111;DHT22;50401;48.188;11.566;2023-03-24T07:51:32;14.11;71.50
64111;DHT22;50401;48.188;11.566;2023-03-24T07:53:57;14.15;71.50
64111;DHT22;50401;48.188;11.566;2023-03-24T07:56:23;14.10;71.35
64111;DHT22;50401;48.188;11.566;2023-03-24T07:58:48;14.12;71.22
64111;DHT22;50401;48.188;11.566;2023-03-24T08:01:14;14.15;71.34
64111;DHT22;50401;48.188;11.566;2023-03-24T08:03:42;14.15;71.03
64111;DHT22;50401;48.188;11.566;2023-03-24T08:06:08;14.17;70.33
64111;DHT22;50401;48.188;11.566;2023-03-24T08:08:34;14.21;70.63
64111;DHT22;50401;48.188;11.566;2023-03-24T08:11:01;14.26;70.48
64111;DHT22;50401;48.188;11.566;2023-03-24T08:13:26;14.36;70.28
64111;DHT22;50401;48.188;11.566;2023-03-24T08:15:52;14.39;70.40
64111;DHT22;50401;48.188;11.566;2023-03-24T08:18:18;14.52;70.69
64111;DHT22;50401;48.188;11.566;2023-03-24T08:20:45;14.52;70.60
64111;DHT22;50401;48.188;11.566;2023-03-24T08:23:10;14.56;70.73
64111;DHT22;50401;48.188;11.566;2023-03-24T08:25:36;14.57;70.86
64111;DHT22;50401;48.188;11.566;2023-03-24T08:28:01;14.64;71.12
64111;DHT22;50401;48.188;11.566;2023-03-24T08:30:27;14.61;71.03
64111;DHT22;50401;48.188;11.566;2023-03-24T08:32:54;14.66;70.94
64111;DHT22;50401;48.188;11.566;2023-03-24T08:35:23;14.64;70.57
64111;DHT22;50401;48.188;11.566;2023-03-24T08:37:50;14.66;70.41
64111;DHT22;50401;48.188;11.566;2023-03-24T08:40:17;14.67;70.48
64111;DHT22;50401;48.188;11.566;2023-03-24T08:42:47;14.63;70.29
64111;DHT22;50401;48.188;11.566;2023-03-24T08:45:13;14.60;70.30
64111;DHT22;50401;48.188;11.566;2023-03-24T08:47:40;14.60;70.46
64111;DHT22;50401;48.188;11.566;2023-03-24T08:50:07;14.57;70.38
64111;DHT22;50401;48.188;11.566;2023-03-24T08:52:32;14.64;70.46
64111;DHT22;50401;48.188;11.566;2023-03-24T08:54:58;14.60;70.52
64111;DHT22;50401;48.188;11.566;2023-03-24T08:57:23;14.59;70.85
64111;DHT22;50401;48.188;11.566;2023-03-24T08:59:49;14.56;71.23
64111;DHT22;50401;48.188;11.566;2023-03-24T09:02:15;14.55;71.65
64111;DHT22;50401;48.188;11.566;2023-03-24T09:04:40;14.53;71.87
64111;DHT22;50401;48.188;11.566;2023-03-24T09:07:10;14.55;71.89
64111;DHT22;50401;48.188;11.566;2023-03-24T09:09:36;14.53;72.52
64111;DHT22;50401;48.188;11.566;2023-03-24T09:12:01;14.56;73.07
64111;DHT22;50401;48.188;11.566;2023-03-24T09:14:27;14.55;73.58
64111;DHT22;50401;48.188;11.566;2023-03-24T09:16:52;14.63;73.65
64111;DHT22;50401;48.188;11.566;2023-03-24T09:19:18;14.66;72.54
64111;DHT22;50401;48.188;11.566;2023-03-24T09:21:45;14.67;72.92
64111;DHT22;50401;48.188;11.566;2023-03-24T09:24:11;14.70;73.13
64111;DHT22;50401;48.188;11.566;2023-03-24T09:26:36;14.74;73.41
64111;DHT22;50401;48.188;11.566;2023-03-24T09:29:02;14.81;72.81
64111;DHT22;50401;48.188;11.566;2023-03-24T09:31:28;14.78;72.55
64111;DHT22;50401;48.188;11.566;2023-03-24T09:33:53;14.70;72.61
64111;DHT22;50401;48.188;11.566;2023-03-24T09:36:19;14.67;72.85
64111;DHT22;50401;48.188;11.566;2023-03-24T09:38:45;14.73;73.29
64111;DHT22;50401;48.188;11.566;2023-03-24T09:41:19;14.64;73.61
64111;DHT22;50401;48.188;11.566;2023-03-24T09:43:59;14.59;73.82
64111;DHT22;50401;48.188;11.566;2023-03-24T09:46:36;14.43;74.20
64111;DHT22;50401;48.188;11.566;2023-03-24T09:49:03;14.46;74.53
64111;DHT22;50401;48.188;11.566;2023-03-24T09:51:33;14.19;75.30
64111;DHT22;50401;48.188;11.566;2023-03-24T09:56:32;14.18;75.61
64111;DHT22;50401;48.188;11.566;2023-03-24T09:59:06;14.21;76.02
64111;DHT22;50401;48.188;11.566;2023-03-24T10:01:36;14.24;75.92
64111;DHT22;50401;48.188;11.566;2023-03-24T10:04:03;14.15;76.14
64111;DHT22;50401;48.188;11.566;2023-03-24T10:06:31;14.19;76.53
64111;DHT22;50401;48.188;11.566;2023-03-24T10:20:51;14.26;76.38
64111;DHT22;50401;48.188;11.566;2023-03-24T10:31:32;14.46;76.52
64111;DHT22;50401;48.188;11.566;2023-03-24T10:33:59;14.39;76.53
64111;DHT22;50401;48.188;11.566;2023-03-24T10:36:25;14.40;76.30
64111;DHT22;50401;48.188;11.566;2023-03-24T10:38:52;14.32;76.19
64111;DHT22;50401;48.188;11.566;2023-03-24T10:41:23;14.36;76.33
64111;DHT22;50401;48.188;11.566;2023-03-24T10:43:51;14.47;76.28
64111;DHT22;50401;48.188;11.566;2023-03-24T10:46:20;14.53;75.88
64111;DHT22;50401;48.188;11.566;2023-03-24T10:48:51;14.60;75.39
64111;DHT22;50401;48.188;11.566;2023-03-24T10:51:19;14.64;75.21
64111;DHT22;50401;48.188;11.566;2023-03-24T10:53:49;14.57;74.67
64111;DHT22;50401;48.188;11.566;2023-03-24T10:56:40;14.64;74.74
64111;DHT22;50401;48.188;11.566;2023-03-24T10:59:23;14.56;74.45
64111;DHT22;50401;48.188;11.566;2023-03-24T11:01:56;14.59;75.07
64111;DHT22;50401;48.188;11.566;2023-03-24T11:04:23;14.60;74.76
64111;DHT22;50401;48.188;11.566;2023-03-24T11:07:17;14.46;74.46
64111;DHT22;50401;48.188;11.566;2023-03-24T11:12:28;14.35;74.38
64111;DHT22;50401;48.188;11.566;2023-03-24T11:15:14;14.35;74.31
64111;DHT22;50401;48.188;11.566;2023-03-24T11:17:44;14.30;74.79
64111;DHT22;50401;48.188;11.566;2023-03-24T11:20:19;14.26;75.15
64111;DHT22;50401;48.188;11.566;2023-03-24T11:25:31;14.07;75.67
64111;DHT22;50401;48.188;11.566;2023-03-24T11:27:59;14.01;76.43
64111;DHT22;50401;48.188;11.566;2023-03-24T11:30:34;13.95;76.41
64111;DHT22;50401;48.188;11.566;2023-03-24T11:33:16;14.02;76.41
64111;DHT22;50401;48.188;11.566;2023-03-24T11:35:42;14.02;76.59
64111;DHT22;50401;48.188;11.566;2023-03-24T11:38:12;14.19;76.41
64111;DHT22;50401;48.188;11.566;2023-03-24T11:40:52;14.12;76.19
64111;DHT22;50401;48.188;11.566;2023-03-24T11:43:19;14.35;76.10
64111;DHT22;50401;48.188;11.566;2023-03-24T11:46:04;14.57;75.40
64111;DHT22;50401;48.188;11.566;2023-03-24T11:51:10;14.91;74.07
64111;DHT22;50401;48.188;11.566;2023-03-24T11:53:47;14.96;74.06
64111;DHT22;50401;48.188;11.566;2023-03-24T12:01:25;15.36;73.25
64111;DHT22;50401;48.188;11.566;2023-03-24T12:17:33;16.01;69.83
64111;DHT22;50401;48.188;11.566;2023-03-24T12:25:31;16.27;67.79
64111;DHT22;50401;48.188;11.566;2023-03-24T12:47:30;16.34;67.13
64111;DHT22;50401;48.188;11.566;2023-03-24T12:58:40;16.15;65.99
64111;DHT22;50401;48.188;11.566;2023-03-24T13:04:19;16.22;65.25
64111;DHT22;50401;48.188;11.566;2023-03-24T13:06:47;16.20;64.39
64111;DHT22;50401;48.188;11.566;2023-03-24T13:09:22;16.15;65.78
64111;DHT22;50401;48.188;11.566;2023-03-24T13:11:56;16.01;66.56
64111;DHT22;50401;48.188;11.566;2023-03-24T13:14:28;15.71;67.25
64111;DHT22;50401;48.188;11.566;2023-03-24T13:17:02;15.63;69.32
64111;DHT22;50401;48.188;11.566;2023-03-24T13:19:29;15.30;71.35
64111;DHT22;50401;48.188;11.566;2023-03-24T13:21:55;15.12;70.97
64111;DHT22;50401;48.188;11.566;2023-03-24T13:24:22;14.99;70.76
64111;DHT22;50401;48.188;11.566;2023-03-24T13:27:19;14.89;70.66
64111;DHT22;50401;48.188;11.566;2023-03-24T13:40:23;15.19;70.72
64111;DHT22;50401;48.188;11.566;2023-03-24T13:42:54;15.21;70.90
64111;DHT22;50401;48.188;11.566;2023-03-24T13:45:26;15.18;69.77
64111;DHT22;50401;48.188;11.566;2023-03-24T13:48:05;15.01;69.88
64111;DHT22;50401;48.188;11.566;2023-03-24T13:50:52;14.98;70.45
64111;DHT22;50401;48.188;11.566;2023-03-24T13:53:23;15.04;70.13
64111;DHT22;50401;48.188;11.566;2023-03-24T13:55:51;15.12;69.92
64111;DHT22;50401;48.188;11.566;2023-03-24T13:58:21;15.19;69.76
64111;DHT22;50401;48.188;11.566;2023-03-24T14:03:40;15.16;68.35
64111;DHT22;50401;48.188;11.566;2023-03-24T14:06:08;15.11;68.58
64111;DHT22;50401;48.188;11.566;2023-03-24T14:19:23;15.04;68.02
64111;DHT22;50401;48.188;11.566;2023-03-24T14:21:57;15.01;68.26
64111;DHT22;50401;48.188;11.566;2023-03-24T14:24:28;15.11;68.45
64111;DHT22;50401;48.188;11.566;2023-03-24T14:26:54;15.11;68.89
64111;DHT22;50401;48.188;11.566;2023-03-24T14:29:46;15.04;69.08
64111;DHT22;50401;48.188;11.566;2023-03-24T14:32:15;15.21;66.83
64111;DHT22;50401;48.188;11.566;2023-03-24T14:34:54;15.08;66.59
64111;DHT22;50401;48.188;11.566;2023-03-24T14:37:21;15.02;67.23
64111;DHT22;50401;48.188;11.566;2023-03-24T14:39:47;15.05;67.27
64111;DHT22;50401;48.188;11.566;2023-03-24T14:42:51;14.98;67.30
64111;DHT22;50401;48.188;11.566;2023-03-24T14:48:02;14.85;67.41
64111;DHT22;50401;48.188;11.566;2023-03-24T14:50:28;14.83;67.18
64111;DHT22;50401;48.188;11.566;2023-03-24T14:52:57;14.84;67.50
64111;DHT22;50401;48.188;11.566;2023-03-24T14:55:25;14.89;67.34
64111;DHT22;50401;48.188;11.566;2023-03-24T14:57:53;14.91;66.96
64111;DHT22;50401;48.188;11.566;2023-03-24T15:00:41;14.92;67.13
64111;DHT22;50401;48.188;11.566;2023-03-24T15:03:36;14.96;67.50
64111;DHT22;50401;48.188;11.566;2023-03-24T15:06:17;15.04;67.30
64111;DHT22;50401;48.188;11.566;2023-03-24T15:08:47;15.04;67.08
64111;DHT22;50401;48.188;11.566;2023-03-24T15:11:16;15.11;66.64
64111;DHT22;50401;48.188;11.566;2023-03-24T15:13:50;15.18;66.41
64111;DHT22;50401;48.188;11.566;2023-03-24T15:16:24;15.22;65.91
64111;DHT22;50401;48.188;11.566;2023-03-24T15:21:32;15.06;66.37
64111;DHT22;50401;48.188;11.566;2023-03-24T15:23:58;14.96;66.90
64111;DHT22;50401;48.188;11.566;2023-03-24T15:26:27;14.91;67.06
64111;DHT22;50401;48.188;11.566;2023-03-24T15:28:57;14.89;66.91
64111;DHT22;50401;48.188;11.566;2023-03-24T15:31:24;14.83;67.30
64111;DHT22;50401;48.188;11.566;2023-03-24T15:34:01;14.77;67.32
64111;DHT22;50401;48.188;11.566;2023-03-24T15:36:34;14.77;67.23
64111;DHT22;50401;48.188;11.566;2023-03-24T15:39:16;14.73;67.33
64111;DHT22;50401;48.188;11.566;2023-03-24T15:41:43;14.69;67.81
64111;DHT22;50401;48.188;11.566;2023-03-24T15:44:09;14.63;67.59
64111;DHT22;50401;48.188;11.566;2023-03-24T15:46:42;14.66;67.54
64111;DHT22;50401;48.188;11.566;2023-03-24T15:49:17;14.55;67.43
64111;DHT22;50401;48.188;11.566;2023-03-24T15:51:50;14.53;67.68
64111;DHT22;50401;48.188;11.566;2023-03-24T15:54:35;14.52;67.53
64111;DHT22;50401;48.188;11.566;2023-03-24T15:57:10;14.46;67.44
64111;DHT22;50401;48.188;11.566;2023-03-24T15:59:45;14.45;67.69
64111;DHT22;50401;48.188;11.566;2023-03-24T16:04:55;14.26;68.98
64111;DHT22;50401;48.188;11.566;2023-03-24T16:07:26;14.14;69.81
64111;DHT22;50401;48.188;11.566;2023-03-24T16:09:55;13.98;71.00
64111;DHT22;50401;48.188;11.566;2023-03-24T16:12:33;13.80;71.49
64111;DHT22;50401;48.188;11.566;2023-03-24T16:14:59;13.71;72.05
64111;DHT22;50401;48.188;11.566;2023-03-24T16:17:24;13.62;72.76
64111;DHT22;50401;48.188;11.566;2023-03-24T16:19:50;13.53;73.72
64111;DHT22;50401;48.188;11.566;2023-03-24T16:22:15;13.49;73.99
64111;DHT22;50401;48.188;11.566;2023-03-24T16:24:41;13.46;74.80
64111;DHT22;50401;48.188;11.566;2023-03-24T16:27:09;13.38;75.27
64111;DHT22;50401;48.188;11.566;2023-03-24T16:29:35;13.28;75.74
64111;DHT22;50401;48.188;11.566;2023-03-24T16:32:00;13.12;76.04
64111;DHT22;50401;48.188;11.566;2023-03-24T16:34:26;13.10;76.71
64111;DHT22;50401;48.188;11.566;2023-03-24T16:36:53;13.11;76.73
64111;DHT22;50401;48.188;11.566;2023-03-24T16:39:23;13.03;77.11
64111;DHT22;50401;48.188;11.566;2023-03-24T16:41:49;13.07;76.76
64111;DHT22;50401;48.188;11.566;2023-03-24T16:44:15;13.06;76.67
64111;DHT22;50401;48.188;11.566;2023-03-24T16:46:45;12.94;76.55
64111;DHT22;50401;48.188;11.566;2023-03-24T16:49:13;12.89;77.06
64111;DHT22;50401;48.188;11.566;2023-03-24T16:51:39;12.84;77.32
64111;DHT22;50401;48.188;11.566;2023-03-24T16:54:04;12.77;77.26
64111;DHT22;50401;48.188;11.566;2023-03-24T16:56:30;12.70;77.70
64111;DHT22;50401;48.188;11.566;2023-03-24T16:58:56;12.60;77.90
64111;DHT22;50401;48.188;11.566;2023-03-24T17:01:36;12.55;78.12
64111;DHT22;50401;48.188;11.566;2023-03-24T17:04:04;12.48;78.29
64111;DHT22;50401;48.188;11.566;2023-03-24T17:06:34;12.55;77.98
64111;DHT22;50401;48.188;11.566;2023-03-24T17:09:00;12.60;78.30
64111;DHT22;50401;48.188;11.566;2023-03-24T17:11:34;12.67;77.43
64111;DHT22;50401;48.188;11.566;2023-03-24T17:14:00;12.67;77.40
64111;DHT22;50401;48.188;11.566;2023-03-24T17:16:31;12.69;77.22
64111;DHT22;50401;48.188;11.566;2023-03-24T17:19:01;12.72;76.88
64111;DHT22;50401;48.188;11.566;2023-03-24T17:21:26;12.52;76.88
64111;DHT22;50401;48.188;11.566;2023-03-24T17:23:52;12.50;76.60
64111;DHT22;50401;48.188;11.566;2023-03-24T17:26:20;12.45;76.65
64111;DHT22;50401;48.188;11.566;2023-03-24T17:28:46;12.49;75.98
64111;DHT22;50401;48.188;11.566;2023-03-24T17:31:12;12.32;76.26
64111;DHT22;50401;48.188;11.566;2023-03-24T17:33:37;12.49;75.98
64111;DHT22;50401;48.188;11.566;2023-03-24T17:36:03;12.49;75.58
64111;DHT22;50401;48.188;11.566;2023-03-24T17:38:28;12.52;74.84
64111;DHT22;50401;48.188;11.566;2023-03-24T17:41:01;12.48;74.44
64111;DHT22;50401;48.188;11.566;2023-03-24T17:43:27;12.38;74.52
64111;DHT22;50401;48.188;11.566;2023-03-24T17:45:56;12.25;74.34
64111;DHT22;50401;48.188;11.566;2023-03-24T17:48:22;12.28;74.14
64111;DHT22;50401;48.188;11.566;2023-03-24T17:50:48;12.44;73.47
64111;DHT22;50401;48.188;11.566;2023-03-24T17:53:13;12.49;73.39
64111;DHT22;50401;48.188;11.566;2023-03-24T17:55:40;12.56;72.74
64111;DHT22;50401;48.188;11.566;2023-03-24T17:58:05;12.55;73.26
64111;DHT22;50401;48.188;11.566;2023-03-24T18:00:31;12.53;73.00
64111;DHT22;50401;48.188;11.566;2023-03-24T18:02:56;12.55;72.75
64111;DHT22;50401;48.188;11.566;2023-03-24T18:05:22;12.57;72.77
64111;DHT22;50401;48.188;11.566;2023-03-24T18:07:47;12.53;72.82
64111;DHT22;50401;48.188;11.566;2023-03-24T18:10:12;12.55;72.87
64111;DHT22;50401;48.188;11.566;2023-03-24T18:12:39;12.59;72.41
64111;DHT22;50401;48.188;11.566;2023-03-24T18:15:05;12.62;72.42
64111;DHT22;50401;48.188;11.566;2023-03-24T18:17:31;12.56;72.29
64111;DHT22;50401;48.188;11.566;2023-03-24T18:19:57;12.38;72.07
64111;DHT22;50401;48.188;11.566;2023-03-24T18:22:24;12.41;71.74
64111;DHT22;50401;48.188;11.566;2023-03-24T18:24:50;12.46;71.42
64111;DHT22;50401;48.188;11.566;2023-03-24T18:27:17;12.27;71.05
64111;DHT22;50401;48.188;11.566;2023-03-24T18:29:43;12.24;71.51
64111;DHT22;50401;48.188;11.566;2023-03-24T18:32:08;12.25;71.96
64111;DHT22;50401;48.188;11.566;2023-03-24T18:34:34;12.25;72.22